Urb Jb Huyke, Puerto Rico
Current Conditions -  °F | °C
As of 12:56 AM on Wednesday 22 Oct 2014 (Local Time) from TJSJ Reporting Station
Scattered Clouds Scattered Clouds  
Wind Chill: 27°   Ceiling: Unl
Heat Index: 30°   Visibility: 10mi
Dew Point: 24°   Wind: 0mph
Humidity: 82%   Direction: NA
Pressure: 29.96"   Gusts: NA
Location:  18.417°N, 66.0617°W
Report Text: TJSJ 220456Z 00000KT 10SM FEW031 SCT060 27/24 A2996 RMK AO2 SLP145 T02720239
Loading
Personal Weather Stations






























Interactive Weather Map
Tropical Storm Tracking
New forecast layout! Learn more

10-Day Weather Forecast

Advertisements
Track Severe Weather on mobile